Terminal Aerodrome Forecast
Issued by NWS

Home | Current Version | Previous Version | Text Only | Print | Product List | Glossary On
Versions: 1 2 3 4 5 6 7 8 9 10 11 12 13 14
000
FTUS41 KBTV 171120
TAFRUT
TAF
KRUT 171120Z 1712/1812 00000KT P6SM FEW250
     FM171800 11005KT P6SM VCSH BKN050
     FM172200 13011KT 3SM -SNPL BR OVC015
     FM180000 13012G18KT 2SM -SNPL BR OVC008
     FM180300 13013G24KT 2SM -SN BR OVC003=

USA.gov is the U.S. government's official web portal to all federal, state and local government web resources and services.